Time;durP1;ratioP1;P1;durP2;ratioP2;P2;SDS_P1;SDS_P2;PMS_P1;PMS_P2;Temp;Humidity;BMP_temperature;BMP_pressure;BME280_temperature;BME280_humidity;BME280_pressure;Samples;Min_cycle;Max_cycle;Signal;HPM_P1;HPM_P2
2022/01/21 00:00:27;;;;;;;4.90;3.03;;;;;;;;;;4985595;28;20035;-58
2022/01/21 00:02:53;;;;;;;5.50;2.67;;;;;;;;;;4993975;28;20030;-58
2022/01/21 00:05:21;;;;;;;4.45;3.05;;;;;;;;;;4987072;28;20060;-58
2022/01/21 00:07:48;;;;;;;8.13;2.95;;;;;;;;;;4992626;28;20298;-58
2022/01/21 00:10:14;;;;;;;4.05;2.80;;;;;;;;;;4984541;28;20032;-56
2022/01/21 00:12:40;;;;;;;5.57;2.60;;;;;;;;;;4988654;28;20042;-59
2022/01/21 00:15:08;;;;;;;3.53;2.53;;;;;;;;;;4989761;28;20495;-58
2022/01/21 00:17:34;;;;;;;8.20;2.65;;;;;;;;;;4987453;28;20480;-57
2022/01/21 00:30:57;;;;;;;5.10;2.30;;;;;;;;;;4982491;28;20383;-56
2022/01/21 00:33:23;;;;;;;7.63;2.65;;;;;;;;;;4986721;28;20039;-58
2022/01/21 00:35:49;;;;;;;7.28;3.28;;;;;;;;;;4985234;28;20043;-56
2022/01/21 00:38:15;;;;;;;8.40;2.67;;;;;;;;;;4985486;28;20034;-59
2022/01/21 00:40:41;;;;;;;4.05;2.40;;;;;;;;;;4984902;28;20042;-59
2022/01/21 00:43:29;;;;;;;8.02;2.53;;;;;;;;;;4987028;28;20113;-59
2022/01/21 00:45:55;;;;;;;4.85;2.70;;;;;;;;;;4986358;28;20046;-58
2022/01/21 00:48:21;;;;;;;5.70;3.08;;;;;;;;;;4983125;28;20033;-59
2022/01/21 00:50:47;;;;;;;6.55;2.53;;;;;;;;;;4990252;28;20073;-59
2022/01/21 00:53:14;;;;;;;3.28;2.28;;;;;;;;;;4987095;28;20050;-58
2022/01/21 00:55:39;;;;;;;6.22;2.85;;;;;;;;;;4982675;28;20036;-59
2022/01/21 00:58:06;;;;;;;7.97;3.10;;;;;;;;;;4983177;28;20034;-59
2022/01/21 01:00:32;;;;;;;4.45;2.22;;;;;;;;;;4983380;28;20027;-59
2022/01/21 01:03:00;;;;;;;4.05;2.63;;;;;;;;;;4993083;28;20487;-58
2022/01/21 01:05:26;;;;;;;3.83;2.17;;;;;;;;;;4981340;28;20033;-59
2022/01/21 01:07:53;;;;;;;9.32;2.83;;;;;;;;;;4993822;28;20030;-58
2022/01/21 01:10:25;;;;;;;2.75;2.25;;;;;;;;;;4981847;28;20034;-59
2022/01/21 01:20:49;;;;;;;4.32;1.90;;;;;;;;;;4986184;28;20027;-59
2022/01/21 01:23:49;;;;;;;8.27;2.47;;;;;;;;;;4981600;28;20060;-59
2022/01/21 01:28:56;;;;;;;4.10;2.13;;;;;;;;;;4989962;28;20027;-59
2022/01/21 01:31:21;;;;;;;4.40;2.08;;;;;;;;;;4988773;28;20545;-60
2022/01/21 01:33:48;;;;;;;2.28;1.92;;;;;;;;;;4985537;28;20109;-59
2022/01/21 01:36:13;;;;;;;5.05;2.42;;;;;;;;;;4989943;28;20077;-58
2022/01/21 01:41:14;;;;;;;2.60;2.17;;;;;;;;;;4982826;28;20042;-59
2022/01/21 01:52:16;;;;;;;2.45;2.08;;;;;;;;;;4983829;28;20479;-54
2022/01/21 01:54:46;;;;;;;5.50;2.00;;;;;;;;;;4985572;28;20039;-56
2022/01/21 01:57:12;;;;;;;5.35;2.65;;;;;;;;;;4989607;28;20869;-57
2022/01/21 01:59:38;;;;;;;5.40;2.50;;;;;;;;;;4988058;28;20034;-56
2022/01/21 02:02:09;;;;;;;6.32;2.33;;;;;;;;;;4989364;28;20038;-55
2022/01/21 02:04:35;;;;;;;7.20;2.72;;;;;;;;;;4982831;28;20030;-56
2022/01/21 02:07:01;;;;;;;6.25;2.47;;;;;;;;;;4987263;28;20515;-54
2022/01/21 02:09:28;;;;;;;4.38;2.30;;;;;;;;;;4987267;28;20038;-56
2022/01/21 02:11:54;;;;;;;3.72;2.30;;;;;;;;;;4987846;28;20041;-57
2022/01/21 02:14:27;;;;;;;6.43;2.55;;;;;;;;;;4986093;28;20038;-56
2022/01/21 02:22:22;;;;;;;8.18;2.63;;;;;;;;;;4982174;28;20084;-55
2022/01/21 02:24:55;;;;;;;4.63;2.85;;;;;;;;;;4982693;28;20035;-58
2022/01/21 02:27:20;;;;;;;7.00;2.78;;;;;;;;;;4988510;28;20113;-58
2022/01/21 02:29:53;;;;;;;8.20;2.97;;;;;;;;;;4993434;28;20101;-54
2022/01/21 02:32:20;;;;;;;6.03;2.60;;;;;;;;;;4995686;28;20604;-54
2022/01/21 02:34:47;;;;;;;4.65;2.92;;;;;;;;;;4988683;28;20042;-57
2022/01/21 02:37:16;;;;;;;5.13;2.60;;;;;;;;;;4988389;28;20479;-58
2022/01/21 02:39:42;;;;;;;4.88;2.67;;;;;;;;;;4980262;28;20042;-57
2022/01/21 02:42:08;;;;;;;6.20;2.47;;;;;;;;;;4987939;28;20495;-52
2022/01/21 02:44:34;;;;;;;4.00;2.70;;;;;;;;;;4994095;28;20038;-57
2022/01/21 02:47:02;;;;;;;8.82;2.60;;;;;;;;;;4982959;28;20587;-55
2022/01/21 02:49:29;;;;;;;4.57;2.83;;;;;;;;;;4988227;28;20515;-54
2022/01/21 02:51:57;;;;;;;7.30;2.75;;;;;;;;;;4998027;28;20053;-53
2022/01/21 02:54:23;;;;;;;7.00;2.50;;;;;;;;;;4993396;28;20058;-55
2022/01/21 02:56:49;;;;;;;5.13;2.58;;;;;;;;;;4993348;28;20084;-57
2022/01/21 02:59:15;;;;;;;3.78;2.42;;;;;;;;;;4997957;28;20038;-56
2022/01/21 03:01:43;;;;;;;5.95;2.10;;;;;;;;;;4984425;28;20044;-56
2022/01/21 03:04:14;;;;;;;4.65;2.55;;;;;;;;;;4983125;28;20030;-56
2022/01/21 03:06:40;;;;;;;6.32;2.72;;;;;;;;;;4987415;28;20046;-54
2022/01/21 03:09:07;;;;;;;5.53;2.63;;;;;;;;;;4985864;28;20479;-58
2022/01/21 03:11:33;;;;;;;7.25;3.00;;;;;;;;;;4990402;28;20034;-57
2022/01/21 03:13:59;;;;;;;4.53;2.60;;;;;;;;;;4992527;28;20046;-59
2022/01/21 03:16:25;;;;;;;7.32;3.30;;;;;;;;;;4982444;28;20038;-57
2022/01/21 03:18:52;;;;;;;5.07;3.30;;;;;;;;;;4987206;28;20050;-58
2022/01/21 03:21:17;;;;;;;5.05;3.03;;;;;;;;;;4987901;28;20117;-55
2022/01/21 03:23:46;;;;;;;7.68;3.28;;;;;;;;;;4990532;28;20186;-57
2022/01/21 03:26:19;;;;;;;5.45;3.40;;;;;;;;;;4987757;28;20125;-57
2022/01/21 03:28:47;;;;;;;5.68;3.60;;;;;;;;;;4990399;28;20064;-58
2022/01/21 03:31:13;;;;;;;6.57;3.35;;;;;;;;;;4985350;28;20076;-54
2022/01/21 03:33:39;;;;;;;7.53;4.18;;;;;;;;;;4995879;28;20054;-58
2022/01/21 03:36:05;;;;;;;5.78;3.58;;;;;;;;;;4980968;28;20391;-56
2022/01/21 03:38:31;;;;;;;6.57;3.72;;;;;;;;;;4990394;28;20525;-56
2022/01/21 03:40:57;;;;;;;7.72;4.22;;;;;;;;;;4984361;28;20392;-56
2022/01/21 03:43:24;;;;;;;6.68;3.42;;;;;;;;;;4988218;28;20034;-59
2022/01/21 03:45:51;;;;;;;9.65;3.88;;;;;;;;;;4976566;28;20038;-57
2022/01/21 03:48:18;;;;;;;7.78;3.65;;;;;;;;;;4991574;28;20034;-57
2022/01/21 03:50:44;;;;;;;7.40;3.90;;;;;;;;;;4986839;28;20070;-57
2022/01/21 03:53:10;;;;;;;8.50;2.90;;;;;;;;;;4987027;28;20027;-57
2022/01/21 03:55:36;;;;;;;9.70;3.45;;;;;;;;;;4987993;28;20032;-56
2022/01/21 03:58:04;;;;;;;7.57;3.22;;;;;;;;;;4985461;28;20455;-57
2022/01/21 04:00:34;;;;;;;7.18;3.45;;;;;;;;;;4987089;28;20077;-55
2022/01/21 04:03:00;;;;;;;7.45;3.30;;;;;;;;;;4983645;28;20087;-59
2022/01/21 04:05:27;;;;;;;4.65;3.30;;;;;;;;;;4986992;28;20121;-59
2022/01/21 04:07:53;;;;;;;6.28;3.00;;;;;;;;;;4990961;28;20022;-54
2022/01/21 04:10:20;;;;;;;7.53;3.08;;;;;;;;;;4991118;28;20068;-58
2022/01/21 04:12:46;;;;;;;5.32;3.10;;;;;;;;;;4992701;28;20096;-54
2022/01/21 04:15:12;;;;;;;7.60;3.30;;;;;;;;;;4988800;28;20541;-56
2022/01/21 04:17:38;;;;;;;9.40;4.05;;;;;;;;;;4990249;28;20379;-59
2022/01/21 04:20:05;;;;;;;3.70;2.97;;;;;;;;;;4989425;28;20042;-58
2022/01/21 04:22:35;;;;;;;4.63;3.10;;;;;;;;;;4986332;28;20418;-57
2022/01/21 04:25:01;;;;;;;6.07;2.95;;;;;;;;;;4983126;28;20085;-56
2022/01/21 04:27:27;;;;;;;4.97;3.03;;;;;;;;;;4984437;28;20042;-59
2022/01/21 04:29:53;;;;;;;7.55;3.13;;;;;;;;;;4990579;28;20350;-58
2022/01/21 04:32:19;;;;;;;5.80;3.28;;;;;;;;;;4993414;28;20589;-53
2022/01/21 04:34:44;;;;;;;5.10;2.78;;;;;;;;;;4987126;28;20153;-56
2022/01/21 04:37:12;;;;;;;5.85;2.72;;;;;;;;;;4981825;28;20040;-57
2022/01/21 04:39:48;;;;;;;6.35;3.10;;;;;;;;;;4981422;28;20037;-55
2022/01/21 04:47:39;;;;;;;5.20;2.60;;;;;;;;;;4986375;28;20038;-56
2022/01/21 04:50:10;;;;;;;5.07;2.90;;;;;;;;;;4984823;28;20113;-54
2022/01/21 04:52:36;;;;;;;8.02;2.60;;;;;;;;;;4985095;28;20116;-58
2022/01/21 04:55:03;;;;;;;5.22;2.47;;;;;;;;;;4978436;28;20031;-55
2022/01/21 04:57:29;;;;;;;6.13;2.78;;;;;;;;;;4982766;28;20169;-56
2022/01/21 04:59:55;;;;;;;4.43;2.40;;;;;;;;;;4990587;28;20534;-52
2022/01/21 05:02:23;;;;;;;3.63;2.28;;;;;;;;;;4979429;28;20066;-54
2022/01/21 05:04:48;;;;;;;5.50;2.58;;;;;;;;;;4984674;28;20121;-58
2022/01/21 05:07:19;;;;;;;5.32;2.60;;;;;;;;;;4985262;28;20550;-58
2022/01/21 05:09:45;;;;;;;5.15;2.35;;;;;;;;;;4983367;28;20073;-59
2022/01/21 05:12:13;;;;;;;4.53;3.00;;;;;;;;;;4980803;28;20037;-55
2022/01/21 05:17:24;;;;;;;7.65;3.03;;;;;;;;;;4990269;28;20501;-55
2022/01/21 05:19:50;;;;;;;5.32;3.15;;;;;;;;;;4982828;28;20045;-57
2022/01/21 05:22:16;;;;;;;6.97;3.10;;;;;;;;;;4986682;28;20046;-58
2022/01/21 05:24:42;;;;;;;5.22;3.00;;;;;;;;;;4984997;28;20041;-53
2022/01/21 05:27:10;;;;;;;6.57;2.90;;;;;;;;;;4994513;28;20072;-59
2022/01/21 05:29:36;;;;;;;9.18;2.90;;;;;;;;;;4980280;28;20065;-57
2022/01/21 05:32:04;;;;;;;3.88;2.72;;;;;;;;;;4989266;28;20057;-55
2022/01/21 05:34:30;;;;;;;9.20;3.20;;;;;;;;;;4986523;28;20038;-58
2022/01/21 05:36:56;;;;;;;7.43;2.83;;;;;;;;;;4985492;28;20030;-58
2022/01/21 05:39:22;;;;;;;3.58;2.85;;;;;;;;;;4986499;28;20369;-57
2022/01/21 05:41:50;;;;;;;4.95;2.88;;;;;;;;;;4990137;28;20026;-58
2022/01/21 05:46:55;;;;;;;8.75;3.08;;;;;;;;;;4986099;28;20100;-57
2022/01/21 05:49:22;;;;;;;7.57;2.65;;;;;;;;;;4988027;28;20034;-55
2022/01/21 05:51:49;;;;;;;4.03;2.45;;;;;;;;;;4976902;28;20054;-54
2022/01/21 05:54:14;;;;;;;6.03;2.58;;;;;;;;;;4988311;28;20522;-55
2022/01/21 05:56:41;;;;;;;4.53;2.90;;;;;;;;;;4988994;28;20094;-56
2022/01/21 05:59:07;;;;;;;5.15;2.83;;;;;;;;;;4984851;28;20423;-55
2022/01/21 06:01:34;;;;;;;4.97;3.20;;;;;;;;;;4981879;28;20036;-57
2022/01/21 06:04:03;;;;;;;4.20;3.30;;;;;;;;;;4982764;28;20061;-57
2022/01/21 06:06:30;;;;;;;11.07;3.40;;;;;;;;;;4983172;28;20511;-58
2022/01/21 06:08:56;;;;;;;6.78;3.25;;;;;;;;;;5002615;28;20387;-58
2022/01/21 06:11:22;;;;;;;6.68;3.40;;;;;;;;;;4987621;28;20547;-58
2022/01/21 06:13:49;;;;;;;9.98;3.50;;;;;;;;;;4990283;28;20101;-56
2022/01/21 06:16:17;;;;;;;5.00;3.17;;;;;;;;;;4984651;28;20084;-58
2022/01/21 06:18:43;;;;;;;9.52;3.40;;;;;;;;;;4986250;28;20102;-57
2022/01/21 06:21:09;;;;;;;8.25;3.50;;;;;;;;;;4996097;28;20479;-57
2022/01/21 06:23:35;;;;;;;5.13;3.20;;;;;;;;;;4994487;28;20047;-54
2022/01/21 06:26:00;;;;;;;6.82;3.47;;;;;;;;;;4983385;28;20117;-56
2022/01/21 06:28:26;;;;;;;4.97;3.45;;;;;;;;;;4987700;28;20076;-57
2022/01/21 06:30:52;;;;;;;8.75;3.40;;;;;;;;;;4985829;28;20421;-56
2022/01/21 06:33:20;;;;;;;3.72;3.05;;;;;;;;;;4985398;28;20062;-59
2022/01/21 06:35:50;;;;;;;3.70;3.15;;;;;;;;;;4986595;28;20435;-59
2022/01/21 06:38:18;;;;;;;7.78;3.63;;;;;;;;;;4995400;28;20042;-59
2022/01/21 06:40:44;;;;;;;5.35;3.35;;;;;;;;;;4988287;28;20073;-53
2022/01/21 06:43:09;;;;;;;10.32;3.67;;;;;;;;;;4985159;28;20042;-59
2022/01/21 06:45:35;;;;;;;8.30;3.95;;;;;;;;;;4986058;28;20537;-58
2022/01/21 06:48:04;;;;;;;6.00;3.35;;;;;;;;;;4992683;28;20030;-58
2022/01/21 06:50:32;;;;;;;8.10;3.33;;;;;;;;;;4993094;28;20102;-58
2022/01/21 06:52:57;;;;;;;8.27;3.85;;;;;;;;;;4989813;28;20838;-53
2022/01/21 06:55:23;;;;;;;7.85;3.53;;;;;;;;;;4984168;28;20102;-59
2022/01/21 06:57:49;;;;;;;8.40;3.50;;;;;;;;;;4980557;28;20054;-58
2022/01/21 07:00:18;;;;;;;4.35;3.60;;;;;;;;;;4994904;28;20497;-56
2022/01/21 07:02:49;;;;;;;5.28;3.50;;;;;;;;;;4985616;28;20093;-57
2022/01/21 07:05:16;;;;;;;6.15;3.75;;;;;;;;;;4984288;28;20062;-56
2022/01/21 07:07:42;;;;;;;10.30;4.47;;;;;;;;;;4983233;28;20037;-58
2022/01/21 07:10:11;;;;;;;7.35;3.85;;;;;;;;;;4987651;28;20045;-58
2022/01/21 07:12:38;;;;;;;6.57;4.32;;;;;;;;;;4977657;28;20027;-56
2022/01/21 07:15:05;;;;;;;10.20;5.00;;;;;;;;;;4985515;28;20076;-58
2022/01/21 07:17:31;;;;;;;8.07;4.47;;;;;;;;;;4988430;28;20030;-56
2022/01/21 07:19:56;;;;;;;9.15;4.43;;;;;;;;;;4987933;28;20038;-58
2022/01/21 07:22:22;;;;;;;13.15;4.63;;;;;;;;;;4978005;28;20043;-59
2022/01/21 07:24:48;;;;;;;11.00;4.65;;;;;;;;;;4985188;28;20370;-57
2022/01/21 07:27:14;;;;;;;9.07;4.38;;;;;;;;;;4992234;28;20038;-58
2022/01/21 07:29:40;;;;;;;6.88;3.90;;;;;;;;;;4985201;28;20022;-59
2022/01/21 07:32:06;;;;;;;6.90;3.78;;;;;;;;;;4987738;28;20026;-58
2022/01/21 07:34:32;;;;;;;9.10;3.70;;;;;;;;;;4985963;28;20026;-53
2022/01/21 07:36:58;;;;;;;6.35;3.55;;;;;;;;;;4983899;28;20038;-57
2022/01/21 07:39:23;;;;;;;7.70;4.15;;;;;;;;;;4990997;28;20030;-56
2022/01/21 07:41:50;;;;;;;9.65;3.33;;;;;;;;;;4992125;28;20514;-57
2022/01/21 07:44:16;;;;;;;4.40;3.05;;;;;;;;;;4990311;28;20041;-59
2022/01/21 07:46:44;;;;;;;6.47;3.05;;;;;;;;;;4981936;28;20361;-58
2022/01/21 07:49:12;;;;;;;5.93;3.00;;;;;;;;;;4983430;28;20086;-58
2022/01/21 07:51:38;;;;;;;4.57;2.65;;;;;;;;;;4985836;28;20038;-59
2022/01/21 07:54:05;;;;;;;4.95;2.67;;;;;;;;;;4989293;28;20395;-57
2022/01/21 07:56:34;;;;;;;9.10;2.97;;;;;;;;;;4989038;28;20033;-56
2022/01/21 07:59:03;;;;;;;5.05;3.17;;;;;;;;;;4987290;28;20392;-56
2022/01/21 08:01:29;;;;;;;6.93;3.92;;;;;;;;;;4983756;28;20038;-54
2022/01/21 08:03:55;;;;;;;7.47;4.07;;;;;;;;;;4979526;28;20566;-56
2022/01/21 08:06:21;;;;;;;9.38;4.43;;;;;;;;;;4984601;28;20035;-56
2022/01/21 08:08:47;;;;;;;16.35;4.78;;;;;;;;;;4987755;28;20026;-58
2022/01/21 08:11:12;;;;;;;9.48;4.10;;;;;;;;;;4979141;28;20061;-58
2022/01/21 08:13:38;;;;;;;6.97;3.53;;;;;;;;;;4985839;28;20035;-58
2022/01/21 08:16:04;;;;;;;7.85;3.72;;;;;;;;;;4989760;28;20030;-55
2022/01/21 08:18:29;;;;;;;7.00;3.60;;;;;;;;;;4978205;28;20023;-58
2022/01/21 08:20:55;;;;;;;9.40;3.95;;;;;;;;;;4990258;28;20038;-58
2022/01/21 08:23:21;;;;;;;9.27;3.78;;;;;;;;;;4990522;28;20070;-58
2022/01/21 08:25:47;;;;;;;17.35;4.13;;;;;;;;;;4981382;28;20377;-56
2022/01/21 08:28:13;;;;;;;10.02;3.78;;;;;;;;;;4984470;28;20421;-58
2022/01/21 08:30:39;;;;;;;7.35;3.22;;;;;;;;;;4986479;28;20037;-57
2022/01/21 08:33:05;;;;;;;7.25;3.63;;;;;;;;;;4985285;28;20038;-59
2022/01/21 08:35:31;;;;;;;8.35;3.53;;;;;;;;;;4994851;28;20091;-59
2022/01/21 08:37:58;;;;;;;6.00;3.85;;;;;;;;;;4983477;28;20068;-58
2022/01/21 08:40:25;;;;;;;7.10;3.75;;;;;;;;;;4985514;28;20034;-57
2022/01/21 08:42:51;;;;;;;11.75;3.80;;;;;;;;;;4984354;28;20034;-53
2022/01/21 08:45:18;;;;;;;6.72;3.30;;;;;;;;;;4982085;28;20065;-58
2022/01/21 08:47:43;;;;;;;5.97;3.60;;;;;;;;;;4987177;28;20510;-59
2022/01/21 08:50:12;;;;;;;10.90;3.65;;;;;;;;;;4982930;28;20066;-57
2022/01/21 08:52:40;;;;;;;6.18;2.85;;;;;;;;;;4985336;28;20065;-59
2022/01/21 08:55:16;;;;;;;4.57;3.08;;;;;;;;;;4988955;28;20041;-58
2022/01/21 08:57:44;;;;;;;6.78;3.25;;;;;;;;;;4980638;28;20486;-57
2022/01/21 09:00:14;;;;;;;7.63;3.53;;;;;;;;;;4989396;28;20030;-59
2022/01/21 09:02:40;;;;;;;5.63;3.53;;;;;;;;;;4984791;28;20030;-57
2022/01/21 09:05:06;;;;;;;5.13;2.67;;;;;;;;;;4982667;28;20486;-59
2022/01/21 09:07:32;;;;;;;6.03;3.08;;;;;;;;;;4982975;28;20030;-59
2022/01/21 09:09:58;;;;;;;5.07;2.88;;;;;;;;;;4982459;28;20037;-59
2022/01/21 09:12:23;;;;;;;5.55;2.83;;;;;;;;;;4984391;28;20034;-58
2022/01/21 09:14:50;;;;;;;7.72;3.22;;;;;;;;;;4984392;28;20438;-57
2022/01/21 09:17:17;;;;;;;5.80;2.90;;;;;;;;;;4992382;28;20069;-58
2022/01/21 09:19:43;;;;;;;7.75;2.88;;;;;;;;;;4984793;28;20042;-59
2022/01/21 09:22:08;;;;;;;4.25;2.40;;;;;;;;;;4985804;28;20485;-59
2022/01/21 09:24:35;;;;;;;4.05;2.25;;;;;;;;;;4986757;28;20070;-58
2022/01/21 09:27:03;;;;;;;3.60;2.15;;;;;;;;;;4988555;28;20047;-59
2022/01/21 09:29:29;;;;;;;4.30;2.58;;;;;;;;;;4987442;28;20443;-56
2022/01/21 09:31:55;;;;;;;7.72;2.55;;;;;;;;;;4982442;28;20049;-58
2022/01/21 09:34:25;;;;;;;4.75;2.30;;;;;;;;;;4984599;28;20062;-58
2022/01/21 09:36:55;;;;;;;5.30;2.28;;;;;;;;;;4983936;28;20034;-56
2022/01/21 09:39:23;;;;;;;4.40;2.63;;;;;;;;;;4987489;28;20039;-58
2022/01/21 09:41:49;;;;;;;2.58;2.30;;;;;;;;;;4988842;28;20034;-59
2022/01/21 09:44:19;;;;;;;5.50;2.55;;;;;;;;;;4986754;28;20026;-59
2022/01/21 09:46:49;;;;;;;4.30;2.55;;;;;;;;;;4981241;28;20050;-57
2022/01/21 09:49:27;;;;;;;8.52;2.80;;;;;;;;;;4988302;28;20048;-58
2022/01/21 09:52:00;;;;;;;7.32;3.08;;;;;;;;;;4983274;28;20065;-59
2022/01/21 09:54:32;;;;;;;4.63;2.50;;;;;;;;;;4986421;28;20109;-59
2022/01/21 09:56:59;;;;;;;3.75;2.60;;;;;;;;;;4981124;28;20058;-59
2022/01/21 09:59:29;;;;;;;4.55;2.88;;;;;;;;;;4993131;28;20045;-59
2022/01/21 10:02:00;;;;;;;5.85;2.45;;;;;;;;;;4986856;28;20034;-58
2022/01/21 10:04:31;;;;;;;5.50;2.65;;;;;;;;;;4989726;28;20021;-58
2022/01/21 10:06:58;;;;;;;5.93;2.67;;;;;;;;;;4984199;28;20117;-54
2022/01/21 10:09:25;;;;;;;4.32;2.42;;;;;;;;;;4989620;28;20157;-58
2022/01/21 10:11:54;;;;;;;5.97;2.78;;;;;;;;;;4982174;28;20538;-58
2022/01/21 10:14:22;;;;;;;2.67;2.33;;;;;;;;;;4982964;28;20085;-54
2022/01/21 10:16:49;;;;;;;5.38;2.40;;;;;;;;;;4980848;28;20466;-55
2022/01/21 10:19:24;;;;;;;3.28;2.47;;;;;;;;;;4986428;28;20030;-59
2022/01/21 10:21:58;;;;;;;5.43;2.42;;;;;;;;;;4986126;28;20041;-58
2022/01/21 10:24:24;;;;;;;3.65;2.33;;;;;;;;;;4987270;28;20050;-57
2022/01/21 10:26:53;;;;;;;8.32;2.70;;;;;;;;;;4993130;28;20034;-56
2022/01/21 10:29:20;;;;;;;11.65;3.15;;;;;;;;;;4987987;28;20034;-53
2022/01/21 10:32:00;;;;;;;4.97;3.00;;;;;;;;;;4987838;28;20117;-58
2022/01/21 10:34:35;;;;;;;6.07;2.50;;;;;;;;;;4986961;28;20040;-53
2022/01/21 10:37:07;;;;;;;5.10;2.78;;;;;;;;;;4989035;28;20041;-59
2022/01/21 10:40:02;;;;;;;5.15;2.50;;;;;;;;;;4984180;28;20036;-58
2022/01/21 10:42:29;;;;;;;4.47;3.00;;;;;;;;;;4984104;28;20034;-57
2022/01/21 10:44:55;;;;;;;2.83;2.13;;;;;;;;;;4988324;28;20056;-56
2022/01/21 10:47:35;;;;;;;6.43;2.83;;;;;;;;;;4990454;28;20030;-59
2022/01/21 10:50:04;;;;;;;2.78;2.00;;;;;;;;;;4986657;28;20030;-59
2022/01/21 10:52:51;;;;;;;4.05;2.55;;;;;;;;;;4986314;28;20054;-57
2022/01/21 10:55:32;;;;;;;4.85;2.50;;;;;;;;;;4986247;28;20022;-59
2022/01/21 10:58:09;;;;;;;5.68;2.30;;;;;;;;;;4986018;28;20398;-57
2022/01/21 11:00:36;;;;;;;5.60;2.58;;;;;;;;;;4984810;28;20026;-58
2022/01/21 11:03:14;;;;;;;4.80;2.15;;;;;;;;;;4984674;28;22133;-57
2022/01/21 11:05:44;;;;;;;8.48;2.65;;;;;;;;;;4985784;28;20047;-57
2022/01/21 11:08:12;;;;;;;4.43;2.47;;;;;;;;;;4989705;28;20062;-58
2022/01/21 11:10:45;;;;;;;6.72;2.30;;;;;;;;;;4985930;28;20107;-58
2022/01/21 11:13:20;;;;;;;5.55;2.65;;;;;;;;;;4979914;28;20041;-58
2022/01/21 11:15:54;;;;;;;4.25;2.33;;;;;;;;;;4981933;28;20034;-58
2022/01/21 11:18:21;;;;;;;4.40;2.10;;;;;;;;;;4976356;28;20053;-59
2022/01/21 11:20:56;;;;;;;4.18;2.17;;;;;;;;;;4994716;28;20428;-56
2022/01/21 11:23:26;;;;;;;10.18;2.70;;;;;;;;;;4980117;28;20053;-57
2022/01/21 11:25:56;;;;;;;4.13;2.40;;;;;;;;;;4992322;28;20045;-58
2022/01/21 11:28:23;;;;;;;6.47;2.70;;;;;;;;;;4988407;28;20112;-58
2022/01/21 11:30:51;;;;;;;5.45;2.60;;;;;;;;;;4985552;28;20161;-55
2022/01/21 11:33:20;;;;;;;6.47;3.00;;;;;;;;;;4983906;28;20121;-59
2022/01/21 11:35:48;;;;;;;7.43;2.80;;;;;;;;;;4982670;28;20052;-58
2022/01/21 11:38:16;;;;;;;9.00;2.22;;;;;;;;;;4982529;28;20089;-58
2022/01/21 11:40:43;;;;;;;3.65;2.40;;;;;;;;;;4985184;28;20037;-52
2022/01/21 11:43:10;;;;;;;4.28;2.22;;;;;;;;;;4985164;28;20058;-55
2022/01/21 11:50:47;;;;;;;2.58;2.28;;;;;;;;;;4975139;28;20031;-58
2022/01/21 11:53:14;;;;;;;4.03;2.20;;;;;;;;;;4980983;28;20031;-54
2022/01/21 11:55:47;;;;;;;3.47;2.38;;;;;;;;;;4981403;28;20034;-57
2022/01/21 11:58:23;;;;;;;4.10;2.17;;;;;;;;;;4984445;28;20785;-57
2022/01/21 12:00:51;;;;;;;4.10;2.40;;;;;;;;;;4982194;28;20112;-58
2022/01/21 12:03:21;;;;;;;5.68;2.22;;;;;;;;;;4981113;28;20518;-54
2022/01/21 12:05:47;;;;;;;3.63;2.15;;;;;;;;;;4983056;28;20085;-59
2022/01/21 12:08:13;;;;;;;2.70;2.13;;;;;;;;;;4985770;28;20081;-56
2022/01/21 12:10:43;;;;;;;4.55;2.28;;;;;;;;;;4986690;28;20026;-56
2022/01/21 12:13:21;;;;;;;7.00;2.47;;;;;;;;;;4983940;28;20042;-54
2022/01/21 12:18:54;;;;;;;4.65;2.72;;;;;;;;;;4980711;28;20049;-55
2022/01/21 12:21:29;;;;;;;2.53;1.83;;;;;;;;;;5048670;28;20147;-58
2022/01/21 12:23:55;;;;;;;6.10;3.35;;;;;;;;;;5035197;28;20090;-58
2022/01/21 12:26:29;;;;;;;4.50;2.45;;;;;;;;;;5039358;28;20036;-58
2022/01/21 12:28:57;;;;;;;3.38;2.00;;;;;;;;;;5039766;28;20035;-57
2022/01/21 12:31:52;;;;;;;8.85;2.50;;;;;;;;;;5038511;28;20061;-57
2022/01/21 12:34:18;;;;;;;3.00;2.05;;;;;;;;;;5039140;28;20100;-55
2022/01/21 12:36:54;;;;;;;12.48;2.60;;;;;;;;;;5030339;28;20083;-57
2022/01/21 12:39:47;;;;;;;8.88;3.30;;;;;;;;;;5037409;28;20068;-58
2022/01/21 12:42:25;;;;;;;3.50;2.50;;;;;;;;;;5037047;28;20051;-57
2022/01/21 12:44:52;;;;;;;5.38;2.70;;;;;;;;;;5037183;28;20108;-56
2022/01/21 12:47:40;;;;;;;4.72;2.45;;;;;;;;;;5039602;28;20029;-58
2022/01/21 12:50:18;;;;;;;3.85;2.78;;;;;;;;;;5036827;28;20539;-57
2022/01/21 12:58:14;;;;;;;3.60;2.50;;;;;;;;;;5033776;28;20025;-57
2022/01/21 13:00:41;;;;;;;6.18;2.00;;;;;;;;;;5036881;28;20040;-57
2022/01/21 13:03:27;;;;;;;4.47;2.28;;;;;;;;;;5036426;28;20040;-57
2022/01/21 13:05:57;;;;;;;4.47;2.63;;;;;;;;;;5036713;28;20108;-57
2022/01/21 13:08:59;;;;;;;5.88;2.42;;;;;;;;;;5030670;28;20134;-57
2022/01/21 13:11:25;;;;;;;5.43;2.63;;;;;;;;;;5031535;28;20116;-56
2022/01/21 13:17:05;;;;;;;2.95;2.20;;;;;;;;;;5042160;28;20083;-56
2022/01/21 13:19:53;;;;;;;3.85;2.50;;;;;;;;;;5034201;28;20046;-58
2022/01/21 13:22:35;;;;;;;4.55;2.25;;;;;;;;;;5036151;28;20044;-57
2022/01/21 13:27:30;;;;;;;5.35;2.35;;;;;;;;;;5034145;28;20524;-58
2022/01/21 13:30:07;;;;;;;5.15;2.40;;;;;;;;;;5036802;28;20025;-56
2022/01/21 13:32:33;;;;;;;4.63;2.55;;;;;;;;;;5024645;28;20132;-57
2022/01/21 13:35:12;;;;;;;4.72;2.83;;;;;;;;;;5027094;28;20119;-57
2022/01/21 13:37:39;;;;;;;3.72;2.75;;;;;;;;;;5021650;28;20360;-54
2022/01/21 13:40:08;;;;;;;5.95;2.58;;;;;;;;;;5019956;28;20032;-57
2022/01/21 13:42:36;;;;;;;7.55;2.75;;;;;;;;;;5022477;28;20030;-57
2022/01/21 13:45:08;;;;;;;3.33;2.20;;;;;;;;;;5020181;28;20418;-57
2022/01/21 13:47:45;;;;;;;3.60;2.75;;;;;;;;;;5025079;28;20030;-58
2022/01/21 13:50:24;;;;;;;10.80;3.08;;;;;;;;;;5024894;28;20033;-57
2022/01/21 13:52:54;;;;;;;5.63;2.88;;;;;;;;;;5026304;28;20088;-56
2022/01/21 13:55:44;;;;;;;5.53;2.70;;;;;;;;;;5022396;28;20021;-58
2022/01/21 13:58:27;;;;;;;3.90;2.33;;;;;;;;;;5020320;28;20040;-57
2022/01/21 14:01:21;;;;;;;7.88;2.60;;;;;;;;;;5022207;28;20156;-57
2022/01/21 14:03:47;;;;;;;6.28;2.80;;;;;;;;;;5023390;28;20122;-58
2022/01/21 14:06:22;;;;;;;4.63;2.55;;;;;;;;;;5023724;28;20029;-57
2022/01/21 14:08:50;;;;;;;4.53;2.80;;;;;;;;;;5023373;28;20080;-57
2022/01/21 14:11:24;;;;;;;4.57;2.67;;;;;;;;;;5025746;28;20460;-58
2022/01/21 14:14:00;;;;;;;4.78;2.67;;;;;;;;;;5019815;28;20026;-58
2022/01/21 14:16:28;;;;;;;6.60;3.97;;;;;;;;;;5021486;28;20078;-56
2022/01/21 14:18:56;;;;;;;11.25;3.45;;;;;;;;;;5018041;28;20029;-56
2022/01/21 14:21:25;;;;;;;8.10;3.53;;;;;;;;;;5028187;28;20061;-58
2022/01/21 14:23:52;;;;;;;13.23;4.78;;;;;;;;;;5020340;28;20482;-57
2022/01/21 14:26:21;;;;;;;10.85;4.38;;;;;;;;;;5023169;28;20029;-56
2022/01/21 14:28:56;;;;;;;9.85;4.13;;;;;;;;;;5019066;28;20096;-56
2022/01/21 14:31:37;;;;;;;11.65;3.95;;;;;;;;;;5023199;28;20116;-57
2022/01/21 14:34:12;;;;;;;6.97;3.80;;;;;;;;;;5021828;28;20030;-56
2022/01/21 14:36:39;;;;;;;7.68;3.05;;;;;;;;;;5022311;28;20025;-58
2022/01/21 14:39:07;;;;;;;9.80;3.83;;;;;;;;;;5025656;28;20387;-54
2022/01/21 14:41:39;;;;;;;5.68;3.50;;;;;;;;;;5026047;28;20040;-56
2022/01/21 14:44:05;;;;;;;9.73;3.70;;;;;;;;;;5019769;28;20029;-57
2022/01/21 14:46:30;;;;;;;3.78;2.55;;;;;;;;;;5021432;28;20025;-56
2022/01/21 14:48:59;;;;;;;9.35;3.80;;;;;;;;;;5020583;28;20037;-57
2022/01/21 14:55:13;;;;;;;8.40;3.40;;;;;;;;;;5020297;28;20049;-56
2022/01/21 14:57:46;;;;;;;7.70;5.32;;;;;;;;;;5009254;28;20132;-58
2022/01/21 15:00:13;;;;;;;4.45;3.35;;;;;;;;;;5010154;28;20196;-57
2022/01/21 15:02:40;;;;;;;9.27;4.45;;;;;;;;;;5024420;28;20046;-56
2022/01/21 15:05:11;;;;;;;8.20;3.90;;;;;;;;;;5022250;28;20043;-56
2022/01/21 15:07:40;;;;;;;8.00;3.25;;;;;;;;;;5022554;28;20037;-56
2022/01/21 15:10:23;;;;;;;4.82;3.90;;;;;;;;;;5024151;28;20047;-58
2022/01/21 15:15:46;;;;;;;12.45;3.45;;;;;;;;;;5012022;28;20306;-55
2022/01/21 15:18:14;;;;;;;7.60;2.78;;;;;;;;;;5019893;28;20049;-57
2022/01/21 15:20:43;;;;;;;4.50;2.67;;;;;;;;;;5019481;28;20096;-58
2022/01/21 15:23:10;;;;;;;11.93;4.03;;;;;;;;;;5025765;28;20386;-58
2022/01/21 15:25:36;;;;;;;7.15;3.08;;;;;;;;;;5023568;28;20033;-57
2022/01/21 15:28:03;;;;;;;5.95;3.78;;;;;;;;;;5023439;28;20403;-57
2022/01/21 15:30:29;;;;;;;9.20;3.35;;;;;;;;;;5019476;28;20053;-58
2022/01/21 15:32:56;;;;;;;7.20;2.97;;;;;;;;;;5018175;28;20044;-55
2022/01/21 15:35:22;;;;;;;7.50;3.78;;;;;;;;;;5023462;28;20124;-58
2022/01/21 15:37:48;;;;;;;4.22;3.08;;;;;;;;;;5021189;28;20034;-57
2022/01/21 15:40:15;;;;;;;6.43;3.30;;;;;;;;;;5023099;28;20090;-58
2022/01/21 15:42:42;;;;;;;8.15;4.13;;;;;;;;;;5015638;28;20044;-56
2022/01/21 15:45:10;;;;;;;13.52;4.75;;;;;;;;;;5025474;28;20032;-56
2022/01/21 15:47:36;;;;;;;7.68;4.15;;;;;;;;;;5025285;28;20029;-58
2022/01/21 15:50:03;;;;;;;10.65;5.13;;;;;;;;;;5020280;28;20053;-58
2022/01/21 15:52:29;;;;;;;7.65;3.55;;;;;;;;;;5019394;28;20056;-57
2022/01/21 15:54:55;;;;;;;6.90;4.53;;;;;;;;;;5016989;28;20059;-58
2022/01/21 15:57:21;;;;;;;6.68;3.67;;;;;;;;;;5023091;28;20030;-57
2022/01/21 15:59:47;;;;;;;10.82;4.90;;;;;;;;;;5020713;28;20033;-57
2022/01/21 16:02:13;;;;;;;16.15;4.13;;;;;;;;;;5020683;28;20030;-54
2022/01/21 16:04:38;;;;;;;6.80;3.58;;;;;;;;;;5016565;28;20071;-59
2022/01/21 16:07:05;;;;;;;8.27;3.55;;;;;;;;;;5020406;28;20120;-56